Terminal Aerodrome Forecast
Issued by NWS New Orleans/Baton Rouge, LA

Home | Current Version | Previous Version | Text Only | Print | Product List | Glossary On
Versions: 1 2 3 4 5 6 7 8 9 10 11 12 13 14 15 16 17 18 19 20 21 22 23
000
FTUS44 KLIX 280500
TAFNEW
TAF
KNEW 280523Z 2806/2906 24010KT P6SM FEW045 SCT250
     FM281100 26010KT P6SM SCT020
     FM281500 28012KT P6SM SCT035 PROB30 2821/2901 VRB30KT 2SM TSRA
      BKN025CB=

USA.gov is the U.S. government's official web portal to all federal, state and local government web resources and services.